Madison, Wisconsin
Current Conditions -  °F | °C
As of 8:53 PM on Friday 21 Nov 2014 (Local Time) from KMSN Reporting Station
Overcast Overcast  
Wind Chill: 20°   Ceiling: 2300
Heat Index: 31°   Visibility: 10mi
Dew Point: 10°   Wind: 15mph
Humidity: 42%   Direction: 200°SSW
Pressure: 30.14"   Gusts: 26mph
Location:  43.07°N, 89.39°W
Report Text: KMSN 220253Z 20013G23KT 10SM OVC023 M01/M12 A3014 RMK AO2 SLP218 T10061122 57024
Loading
Personal Weather Stations






























Interactive Weather Map New forecast layout! Learn more

10-Day Weather Forecast

Advertisements
Track Severe Weather on mobile